createdAt,value
2022-08-27T00:01:40.057Z,20.80
2022-08-27T00:04:07.167Z,20.80
2022-08-27T00:06:36.453Z,20.80
2022-08-27T00:09:05.731Z,20.80
2022-08-27T00:11:32.894Z,20.80
2022-08-27T00:14:00.455Z,20.80
2022-08-27T00:16:27.690Z,20.70
2022-08-27T00:18:56.165Z,20.70
2022-08-27T00:21:23.545Z,20.70
2022-08-27T00:23:51.566Z,20.60
2022-08-27T00:26:18.668Z,20.60
2022-08-27T00:28:45.872Z,20.60
2022-08-27T00:31:13.020Z,20.50
2022-08-27T00:33:41.064Z,20.50
2022-08-27T00:36:08.630Z,20.50
2022-08-27T00:38:36.473Z,20.60
2022-08-27T00:41:03.619Z,20.50
2022-08-27T00:43:43.142Z,20.50
2022-08-27T00:46:20.355Z,20.50
2022-08-27T00:48:49.261Z,20.50
2022-08-27T00:51:16.293Z,20.50
2022-08-27T00:53:43.670Z,20.50
2022-08-27T00:56:16.564Z,20.40
2022-08-27T01:01:29.258Z,20.40
2022-08-27T01:04:07.989Z,20.40
2022-08-27T01:12:02.441Z,20.40
2022-08-27T01:14:29.721Z,20.30
2022-08-27T01:16:58.992Z,20.30
2022-08-27T01:19:38.562Z,20.30
2022-08-27T01:22:23.498Z,20.30
2022-08-27T01:24:53.187Z,20.20
2022-08-27T01:27:25.510Z,20.20
2022-08-27T01:29:52.920Z,20.20
2022-08-27T01:32:32.827Z,20.10
2022-08-27T01:35:02.169Z,20.10
2022-08-27T01:37:30.151Z,20.10
2022-08-27T01:50:39.884Z,20.00
2022-08-27T01:53:16.517Z,20.00
2022-08-27T01:55:48.189Z,20.00
2022-08-27T01:58:16.625Z,20.00
2022-08-27T02:00:51.932Z,20.00
2022-08-27T02:03:24.416Z,20.00
2022-08-27T02:05:52.187Z,19.90
2022-08-27T02:08:20.447Z,19.90
2022-08-27T02:10:48.754Z,19.90
2022-08-27T02:13:17.068Z,19.80
2022-08-27T02:15:44.981Z,19.80
2022-08-27T02:18:18.688Z,19.80
2022-08-27T02:20:48.277Z,19.80
2022-08-27T02:23:17.108Z,19.80
2022-08-27T02:28:29.026Z,19.70
2022-08-27T02:30:56.181Z,19.70
2022-08-27T02:33:23.600Z,19.70
2022-08-27T02:35:51.804Z,19.70
2022-08-27T02:38:19.157Z,19.70
2022-08-27T02:40:46.364Z,19.70
2022-08-27T02:43:16.064Z,19.70
2022-08-27T02:45:52.400Z,19.70
2022-08-27T02:48:20.034Z,19.70
2022-08-27T02:50:47.549Z,19.70
2022-08-27T02:53:15.578Z,19.70
2022-08-27T02:55:43.096Z,19.70
2022-08-27T02:58:10.722Z,19.70
2022-08-27T03:00:38.117Z,19.70
2022-08-27T03:03:05.311Z,19.70
2022-08-27T03:05:32.621Z,19.60
2022-08-27T03:08:00.075Z,19.60
2022-08-27T03:10:27.222Z,19.60
2022-08-27T03:12:55.074Z,19.60
2022-08-27T03:15:25.971Z,19.50
2022-08-27T03:18:20.993Z,19.60
2022-08-27T03:23:34.902Z,19.50
2022-08-27T03:26:05.411Z,19.50
2022-08-27T03:28:35.601Z,19.40
2022-08-27T03:31:07.083Z,19.40
2022-08-27T03:33:37.814Z,19.40
2022-08-27T03:36:09.197Z,19.40
2022-08-27T03:38:37.085Z,19.40
2022-08-27T03:41:05.739Z,19.40
2022-08-27T03:43:33.153Z,19.40
2022-08-27T03:48:33.169Z,19.40
2022-08-27T03:51:06.595Z,19.40
2022-08-27T03:53:34.140Z,19.40
2022-08-27T03:56:01.509Z,19.40
2022-08-27T03:58:28.748Z,19.40
2022-08-27T04:00:55.923Z,19.40
2022-08-27T04:03:23.073Z,19.40
2022-08-27T04:05:57.566Z,19.50
2022-08-27T04:08:26.252Z,19.50
2022-08-27T04:10:55.413Z,19.50
2022-08-27T04:13:24.173Z,19.50
2022-08-27T04:15:53.506Z,19.50
2022-08-27T04:18:20.891Z,19.50
2022-08-27T04:20:49.483Z,19.50
2022-08-27T04:23:18.409Z,19.60
2022-08-27T04:25:46.105Z,19.60
2022-08-27T04:28:15.475Z,19.70
2022-08-27T04:30:45.785Z,19.70
2022-08-27T04:33:14.066Z,19.70
2022-08-27T04:35:41.995Z,19.70
2022-08-27T04:38:09.685Z,19.80
2022-08-27T04:40:56.644Z,19.80
2022-08-27T04:43:23.964Z,19.80
2022-08-27T04:45:51.008Z,19.90
2022-08-27T04:48:19.452Z,19.90
2022-08-27T04:50:48.349Z,20.00
2022-08-27T04:53:19.183Z,20.00
2022-08-27T04:55:52.456Z,20.10
2022-08-27T04:58:21.400Z,20.20
2022-08-27T05:00:58.207Z,20.30
2022-08-27T05:03:26.428Z,20.30
2022-08-27T05:05:58.751Z,20.40
2022-08-27T05:08:25.811Z,20.50
2022-08-27T05:10:53.079Z,20.60
2022-08-27T05:13:21.507Z,20.60
2022-08-27T05:15:48.821Z,20.60
2022-08-27T05:18:15.998Z,20.70
2022-08-27T05:20:52.272Z,20.70
2022-08-27T05:23:20.856Z,20.70
2022-08-27T05:25:50.616Z,20.70
2022-08-27T05:28:21.722Z,20.80
2022-08-27T05:31:02.764Z,20.80
2022-08-27T05:33:30.634Z,20.90
2022-08-27T05:35:59.204Z,20.90
2022-08-27T05:38:28.330Z,21.00
2022-08-27T05:41:07.555Z,21.00
2022-08-27T05:43:35.918Z,21.00
2022-08-27T05:46:30.735Z,21.00
2022-08-27T05:48:59.741Z,21.10
2022-08-27T05:51:30.772Z,21.10
2022-08-27T05:54:08.643Z,21.20
2022-08-27T05:56:38.241Z,21.20
2022-08-27T05:59:24.336Z,21.30
2022-08-27T06:01:54.344Z,21.40
2022-08-27T06:04:24.518Z,21.40
2022-08-27T06:06:53.019Z,21.50
2022-08-27T06:09:25.958Z,21.50
2022-08-27T06:11:58.799Z,21.50
2022-08-27T06:14:26.803Z,21.60
2022-08-27T06:16:54.137Z,21.60
2022-08-27T06:19:21.699Z,21.70
2022-08-27T06:22:00.395Z,21.80
2022-08-27T06:24:36.748Z,21.80
2022-08-27T06:27:03.972Z,21.90
2022-08-27T06:29:31.280Z,22.00
2022-08-27T06:31:58.405Z,22.00
2022-08-27T06:34:25.523Z,22.10
2022-08-27T06:36:53.807Z,22.20
2022-08-27T06:39:21.297Z,22.20
2022-08-27T06:41:50.389Z,22.30
2022-08-27T06:44:17.827Z,22.30
2022-08-27T06:46:45.519Z,22.40
2022-08-27T06:49:13.909Z,22.50
2022-08-27T06:51:45.692Z,22.50
2022-08-27T06:54:17.380Z,22.60
2022-08-27T06:56:44.776Z,22.70
2022-08-27T06:59:15.720Z,22.80
2022-08-27T07:01:45.766Z,22.90
2022-08-27T07:04:18.016Z,23.00
2022-08-27T07:06:45.356Z,23.10
2022-08-27T07:09:15.587Z,23.10
2022-08-27T07:11:44.076Z,23.20
2022-08-27T07:14:11.279Z,23.20
2022-08-27T07:16:38.864Z,23.30
2022-08-27T07:19:08.067Z,23.40
2022-08-27T07:21:35.728Z,23.50
2022-08-27T07:24:05.673Z,23.50
2022-08-27T07:26:37.302Z,23.70
2022-08-27T07:29:06.463Z,23.70
2022-08-27T07:31:35.823Z,23.90
2022-08-27T07:34:05.231Z,24.00
2022-08-27T07:36:33.448Z,24.20
2022-08-27T07:39:01.995Z,24.40
2022-08-27T07:41:54.426Z,24.60
2022-08-27T07:44:30.962Z,24.80
2022-08-27T07:47:03.119Z,25.00
2022-08-27T07:49:31.385Z,25.20
2022-08-27T07:51:58.692Z,25.40
2022-08-27T07:54:25.951Z,25.60
2022-08-27T07:56:54.886Z,25.80
2022-08-27T07:59:24.973Z,26.10
2022-08-27T08:01:53.737Z,26.20
2022-08-27T08:04:22.737Z,26.30
2022-08-27T08:06:51.339Z,26.40
2022-08-27T08:09:34.957Z,26.50
2022-08-27T08:12:02.201Z,26.60
2022-08-27T08:14:31.488Z,26.80
2022-08-27T08:17:02.971Z,26.90
2022-08-27T08:19:34.599Z,27.00
2022-08-27T08:22:06.191Z,27.20
2022-08-27T08:24:34.940Z,27.20
2022-08-27T08:27:06.930Z,27.30
2022-08-27T08:29:34.789Z,27.50
2022-08-27T08:32:02.001Z,27.70
2022-08-27T08:34:29.643Z,27.80
2022-08-27T08:36:56.680Z,27.70
2022-08-27T08:39:24.539Z,27.60
2022-08-27T08:41:58.787Z,27.70
2022-08-27T08:44:35.594Z,27.80
2022-08-27T08:47:33.360Z,28.00
2022-08-27T08:50:00.429Z,28.10
2022-08-27T08:52:58.091Z,28.10
2022-08-27T08:55:47.874Z,28.20
2022-08-27T08:58:36.101Z,28.20
2022-08-27T09:01:06.511Z,28.30
2022-08-27T09:03:37.092Z,28.40
2022-08-27T09:06:08.912Z,28.50
2022-08-27T09:08:41.794Z,28.50
2022-08-27T09:11:32.485Z,28.60
2022-08-27T09:14:03.517Z,28.60
2022-08-27T09:16:32.852Z,28.60
2022-08-27T09:19:02.981Z,28.70
2022-08-27T09:21:48.801Z,28.70
2022-08-27T09:24:43.857Z,28.70
2022-08-27T09:27:15.225Z,28.80
2022-08-27T09:29:54.257Z,28.80
2022-08-27T09:32:26.875Z,28.80
2022-08-27T09:34:59.372Z,28.80
2022-08-27T09:37:34.264Z,29.00
2022-08-27T09:40:13.599Z,29.10
2022-08-27T09:43:15.815Z,29.20
2022-08-27T09:45:58.435Z,29.00
2022-08-27T09:48:29.493Z,29.00
2022-08-27T09:51:12.657Z,29.00
2022-08-27T09:53:58.509Z,29.10
2022-08-27T09:56:38.016Z,29.20
2022-08-27T09:59:11.326Z,29.30
2022-08-27T10:02:08.052Z,29.30
2022-08-27T10:04:50.939Z,29.40
2022-08-27T10:07:31.840Z,29.50
2022-08-27T10:10:38.010Z,29.60
2022-08-27T10:13:29.102Z,29.60
2022-08-27T10:16:10.676Z,29.60
2022-08-27T10:18:45.144Z,29.70
2022-08-27T10:21:27.443Z,29.80
2022-08-27T10:24:07.229Z,29.90
2022-08-27T10:27:02.330Z,29.90
2022-08-27T10:30:01.698Z,30.00
2022-08-27T10:32:52.353Z,30.00
2022-08-27T10:35:25.360Z,29.90
2022-08-27T10:38:18.248Z,29.80
2022-08-27T10:40:54.168Z,29.70
2022-08-27T10:43:40.153Z,29.80
2022-08-27T10:46:30.068Z,29.90
2022-08-27T10:49:13.512Z,29.90
2022-08-27T10:52:10.898Z,29.90
2022-08-27T10:54:47.223Z,29.90
2022-08-27T10:57:56.373Z,29.90
2022-08-27T11:00:51.517Z,29.90
2022-08-27T11:03:44.242Z,29.90
2022-08-27T11:06:25.052Z,29.90
2022-08-27T11:09:07.662Z,29.80
2022-08-27T11:12:12.888Z,29.80
2022-08-27T11:14:37.889Z,29.80
2022-08-27T11:17:36.721Z,29.70
2022-08-27T11:20:09.516Z,29.60
2022-08-27T11:22:39.549Z,29.30
2022-08-27T11:25:17.708Z,29.00
2022-08-27T11:27:46.685Z,28.70
2022-08-27T11:30:34.786Z,28.50
2022-08-27T11:33:23.311Z,28.40
2022-08-27T11:36:08.472Z,28.40
2022-08-27T11:38:50.697Z,28.40
2022-08-27T11:41:54.606Z,28.40
2022-08-27T11:44:25.384Z,28.30
2022-08-27T11:46:58.073Z,28.20
2022-08-27T11:49:34.850Z,28.20
2022-08-27T11:52:08.375Z,28.10
2022-08-27T11:54:50.992Z,28.10
2022-08-27T11:57:38.552Z,28.20
2022-08-27T12:00:27.812Z,28.00
2022-08-27T12:03:01.330Z,28.00
2022-08-27T12:05:39.304Z,28.00
2022-08-27T12:08:32.037Z,28.00
2022-08-27T12:11:17.707Z,27.90
2022-08-27T12:13:44.604Z,27.70
2022-08-27T12:16:25.888Z,27.50
2022-08-27T12:19:17.780Z,27.40
2022-08-27T12:22:05.809Z,27.30
2022-08-27T12:24:56.269Z,27.40
2022-08-27T12:27:26.152Z,27.40
2022-08-27T12:30:01.332Z,27.40
2022-08-27T12:32:39.260Z,27.40
2022-08-27T12:35:15.527Z,27.50
2022-08-27T12:37:45.719Z,27.40
2022-08-27T12:40:22.893Z,27.40
2022-08-27T12:43:04.830Z,27.40
2022-08-27T12:45:31.910Z,27.40
2022-08-27T12:47:59.088Z,27.40
2022-08-27T12:50:30.788Z,27.40
2022-08-27T12:53:03.935Z,27.40
2022-08-27T12:55:30.993Z,27.50
2022-08-27T12:58:20.175Z,27.50
2022-08-27T13:00:59.300Z,27.20
2022-08-27T13:03:33.170Z,27.10
2022-08-27T13:06:01.809Z,27.10
2022-08-27T13:08:36.539Z,27.10
2022-08-27T13:11:18.066Z,27.10
2022-08-27T13:13:45.936Z,27.10
2022-08-27T13:16:13.781Z,27.20
2022-08-27T13:18:41.310Z,27.20
2022-08-27T13:21:28.361Z,27.30
2022-08-27T13:24:01.105Z,27.40
2022-08-27T13:26:34.204Z,27.50
2022-08-27T13:29:03.675Z,27.50
2022-08-27T13:31:32.521Z,27.60
2022-08-27T13:34:00.522Z,27.50
2022-08-27T13:36:34.360Z,27.50
2022-08-27T13:39:06.458Z,27.60
2022-08-27T13:41:35.822Z,27.70
2022-08-27T13:44:14.621Z,27.70
2022-08-27T13:46:52.109Z,27.80
2022-08-27T13:49:24.438Z,27.90
2022-08-27T13:52:02.720Z,27.90
2022-08-27T13:54:31.596Z,27.90
2022-08-27T13:57:08.499Z,27.90
2022-08-27T13:59:42.953Z,28.00
2022-08-27T14:02:10.476Z,28.00
2022-08-27T14:04:45.689Z,28.00
2022-08-27T14:07:25.816Z,28.00
2022-08-27T14:10:17.959Z,28.00
2022-08-27T14:12:47.611Z,28.00
2022-08-27T14:15:24.840Z,27.90
2022-08-27T14:17:52.036Z,27.80
2022-08-27T14:20:20.710Z,27.80
2022-08-27T14:22:50.457Z,27.70
2022-08-27T14:25:21.077Z,27.60
2022-08-27T14:27:54.513Z,27.60
2022-08-27T14:30:29.452Z,27.60
2022-08-27T14:32:58.735Z,27.60
2022-08-27T14:35:26.311Z,27.60
2022-08-27T14:37:54.883Z,27.60
2022-08-27T14:40:22.445Z,27.60
2022-08-27T14:42:49.544Z,27.60
2022-08-27T14:45:18.594Z,27.60
2022-08-27T14:47:45.946Z,27.60
2022-08-27T14:50:16.741Z,27.70
2022-08-27T14:52:43.833Z,27.70
2022-08-27T14:55:12.033Z,27.70
2022-08-27T14:57:39.457Z,27.70
2022-08-27T15:00:08.433Z,27.70
2022-08-27T15:02:36.922Z,27.70
2022-08-27T15:05:11.371Z,27.70
2022-08-27T15:07:54.139Z,27.70
2022-08-27T15:10:21.489Z,27.70
2022-08-27T15:12:48.568Z,27.70
2022-08-27T15:15:16.077Z,27.70
2022-08-27T15:17:43.329Z,27.70
2022-08-27T15:20:18.918Z,27.70
2022-08-27T15:22:50.992Z,27.80
2022-08-27T15:25:20.136Z,27.80
2022-08-27T15:27:47.177Z,27.70
2022-08-27T15:30:16.276Z,27.80
2022-08-27T15:32:46.499Z,27.70
2022-08-27T15:35:23.093Z,27.80
2022-08-27T15:37:50.256Z,27.70
2022-08-27T15:40:19.514Z,27.70
2022-08-27T15:42:50.353Z,27.70
2022-08-27T15:45:17.376Z,27.70
2022-08-27T15:47:44.451Z,27.60
2022-08-27T15:50:11.899Z,27.70
2022-08-27T15:52:41.566Z,27.60
2022-08-27T15:55:25.853Z,27.60
2022-08-27T15:57:55.380Z,27.50
2022-08-27T16:00:23.924Z,27.50
2022-08-27T16:02:51.593Z,27.50
2022-08-27T16:05:20.913Z,27.50
2022-08-27T16:07:48.075Z,27.50
2022-08-27T16:10:15.697Z,27.50
2022-08-27T16:12:42.730Z,27.40
2022-08-27T16:15:10.197Z,27.50
2022-08-27T16:17:37.655Z,27.50
2022-08-27T16:20:06.099Z,27.50
2022-08-27T16:22:35.201Z,27.50
2022-08-27T16:25:03.572Z,27.50
2022-08-27T16:27:31.178Z,27.40
2022-08-27T16:29:58.311Z,27.40
2022-08-27T16:32:25.887Z,27.40
2022-08-27T16:34:55.919Z,27.30
2022-08-27T16:37:24.551Z,27.20
2022-08-27T16:39:52.099Z,27.20
2022-08-27T16:42:19.699Z,27.10
2022-08-27T16:44:46.768Z,27.10
2022-08-27T16:47:13.931Z,27.00
2022-08-27T16:49:59.435Z,27.00
2022-08-27T16:52:26.428Z,26.90
2022-08-27T16:54:53.431Z,26.90
2022-08-27T16:57:20.606Z,26.80
2022-08-27T16:59:47.623Z,26.80
2022-08-27T17:02:30.081Z,26.70
2022-08-27T17:05:07.231Z,26.60
2022-08-27T17:07:44.563Z,26.50
2022-08-27T17:10:19.016Z,26.40
2022-08-27T17:12:48.142Z,26.40
2022-08-27T17:15:18.761Z,26.30
2022-08-27T17:17:46.630Z,26.20
2022-08-27T17:20:15.301Z,26.20
2022-08-27T17:22:42.713Z,26.10
2022-08-27T17:25:10.484Z,26.00
2022-08-27T17:27:37.598Z,25.90
2022-08-27T17:30:06.097Z,25.80
2022-08-27T17:32:37.650Z,25.80
2022-08-27T17:35:07.137Z,25.80
2022-08-27T17:37:34.592Z,25.70
2022-08-27T17:40:01.974Z,25.70
2022-08-27T17:42:29.792Z,25.60
2022-08-27T17:44:57.157Z,25.60
2022-08-27T17:47:25.259Z,25.50
2022-08-27T17:49:52.949Z,25.50
2022-08-27T17:52:20.533Z,25.40
2022-08-27T17:54:51.269Z,25.30
2022-08-27T17:57:22.438Z,25.20
2022-08-27T17:59:50.715Z,25.10
2022-08-27T18:02:25.814Z,25.00
2022-08-27T18:04:52.818Z,24.90
2022-08-27T18:07:20.802Z,24.90
2022-08-27T18:09:48.613Z,24.80
2022-08-27T18:12:19.158Z,24.80
2022-08-27T18:14:52.078Z,24.70
2022-08-27T18:17:19.038Z,24.70
2022-08-27T18:19:46.326Z,24.70
2022-08-27T18:22:18.148Z,24.60
2022-08-27T18:24:45.104Z,24.50
2022-08-27T18:27:12.135Z,24.50
2022-08-27T18:29:39.131Z,24.40
2022-08-27T18:32:06.196Z,24.30
2022-08-27T18:34:33.210Z,24.20
2022-08-27T18:37:00.222Z,24.20
2022-08-27T18:39:27.919Z,24.20
2022-08-27T18:41:55.064Z,24.10
2022-08-27T18:44:22.026Z,24.10
2022-08-27T18:46:49.057Z,24.00
2022-08-27T18:49:16.189Z,23.90
2022-08-27T18:51:46.989Z,23.90
2022-08-27T18:54:16.635Z,23.80
2022-08-27T18:56:43.641Z,23.90
2022-08-27T18:59:11.343Z,23.90
2022-08-27T19:01:38.531Z,23.90
2022-08-27T19:04:06.390Z,23.80
2022-08-27T19:06:33.788Z,23.80
2022-08-27T19:09:02.192Z,23.70
2022-08-27T19:11:30.430Z,23.70
2022-08-27T19:13:57.671Z,23.70
2022-08-27T19:16:58.879Z,23.60
2022-08-27T19:19:27.270Z,23.50
2022-08-27T19:21:54.359Z,23.50
2022-08-27T19:24:22.558Z,23.40
2022-08-27T19:26:50.826Z,23.40
2022-08-27T19:29:19.777Z,23.40
2022-08-27T19:31:47.086Z,23.40
2022-08-27T19:34:14.221Z,23.30
2022-08-27T19:36:43.717Z,23.30
2022-08-27T19:39:12.851Z,23.30
2022-08-27T19:41:40.537Z,23.20
2022-08-27T19:44:07.674Z,23.20
2022-08-27T19:46:36.143Z,23.20
2022-08-27T19:49:03.827Z,23.10
2022-08-27T19:51:30.889Z,23.10
2022-08-27T19:53:58.123Z,23.00
2022-08-27T19:56:25.410Z,23.00
2022-08-27T19:58:56.678Z,23.00
2022-08-27T20:01:26.305Z,23.00
2022-08-27T20:03:53.469Z,23.00
2022-08-27T20:06:26.183Z,23.00
2022-08-27T20:08:53.276Z,23.00
2022-08-27T20:11:22.028Z,23.00
2022-08-27T20:13:50.686Z,23.00
2022-08-27T20:16:17.969Z,22.90
2022-08-27T20:18:45.216Z,22.90
2022-08-27T20:21:12.290Z,22.90
2022-08-27T20:23:39.344Z,22.80
2022-08-27T20:26:06.766Z,22.80
2022-08-27T20:28:39.419Z,22.70
2022-08-27T20:31:07.552Z,22.70
2022-08-27T20:33:34.572Z,22.60
2022-08-27T20:36:02.887Z,22.60
2022-08-27T20:38:30.163Z,22.60
2022-08-27T20:40:57.267Z,22.60
2022-08-27T20:43:24.249Z,22.50
2022-08-27T20:45:51.472Z,22.60
2022-08-27T20:48:19.041Z,22.60
2022-08-27T20:50:47.987Z,22.50
2022-08-27T20:53:15.145Z,22.50
2022-08-27T20:55:42.309Z,22.50
2022-08-27T20:58:28.215Z,22.50
2022-08-27T21:03:35.827Z,22.50
2022-08-27T21:06:02.727Z,22.50
2022-08-27T21:08:30.480Z,22.40
2022-08-27T21:10:59.213Z,22.40
2022-08-27T21:13:28.530Z,22.40
2022-08-27T21:15:56.622Z,22.30
2022-08-27T21:18:29.733Z,22.30
2022-08-27T21:20:58.009Z,22.30
2022-08-27T21:23:28.159Z,22.20
2022-08-27T21:26:01.417Z,22.20
2022-08-27T21:28:29.357Z,22.10
2022-08-27T21:30:56.377Z,22.10
2022-08-27T21:33:23.400Z,22.10
2022-08-27T21:35:50.407Z,22.10
2022-08-27T21:38:17.552Z,22.00
2022-08-27T21:40:44.697Z,22.00
2022-08-27T21:43:11.742Z,22.00
2022-08-27T21:45:39.389Z,21.90
2022-08-27T21:48:06.449Z,21.90
2022-08-27T21:50:33.491Z,21.90
2022-08-27T21:53:00.660Z,21.80
2022-08-27T21:55:28.017Z,21.80
2022-08-27T21:57:54.955Z,21.80
2022-08-27T22:00:38.991Z,21.80
2022-08-27T22:03:10.052Z,21.80
2022-08-27T22:05:39.973Z,21.80
2022-08-27T22:08:08.660Z,21.80
2022-08-27T22:10:36.226Z,21.80
2022-08-27T22:13:03.788Z,21.80
2022-08-27T22:15:30.946Z,21.80
2022-08-27T22:17:58.405Z,21.80
2022-08-27T22:20:25.575Z,21.80
2022-08-27T22:22:53.435Z,21.80
2022-08-27T22:25:21.143Z,21.80
2022-08-27T22:27:48.100Z,21.70
2022-08-27T22:30:15.255Z,21.70
2022-08-27T22:32:42.474Z,21.70
2022-08-27T22:35:12.008Z,21.60
2022-08-27T22:37:38.992Z,21.60
2022-08-27T22:40:08.946Z,21.60
2022-08-27T22:42:47.311Z,21.60
2022-08-27T22:45:15.360Z,21.60
2022-08-27T22:47:43.089Z,21.60
2022-08-27T22:50:10.524Z,21.60
2022-08-27T22:52:38.724Z,21.50
2022-08-27T22:55:06.412Z,21.40
2022-08-27T22:57:33.622Z,21.40
2022-08-27T23:00:00.648Z,21.30
2022-08-27T23:02:27.921Z,21.20
2022-08-27T23:04:56.087Z,21.10
2022-08-27T23:07:24.515Z,21.10
2022-08-27T23:09:51.738Z,21.00
2022-08-27T23:12:19.863Z,21.10
2022-08-27T23:14:47.056Z,21.00
2022-08-27T23:17:14.670Z,21.00
2022-08-27T23:19:41.923Z,20.90
2022-08-27T23:22:09.040Z,20.90
2022-08-27T23:24:59.696Z,20.90
2022-08-27T23:27:29.420Z,20.80
2022-08-27T23:29:57.870Z,20.80
2022-08-27T23:32:25.458Z,20.80
2022-08-27T23:34:52.468Z,20.80
2022-08-27T23:37:19.887Z,20.90
2022-08-27T23:39:47.375Z,20.90
2022-08-27T23:42:18.769Z,20.90
2022-08-27T23:44:46.595Z,20.90
2022-08-27T23:47:14.171Z,20.80
2022-08-27T23:49:43.338Z,20.80
2022-08-27T23:52:11.918Z,20.80
2022-08-27T23:54:39.295Z,20.90
2022-08-27T23:57:06.277Z,20.80
2022-08-27T23:59:33.286Z,20.80
